Time;durP1;ratioP1;P1;durP2;ratioP2;P2;SDS_P1;SDS_P2;PMS_P1;PMS_P2;Temp;Humidity;BMP_temperature;BMP_pressure;BME280_temperature;BME280_humidity;BME280_pressure;Samples;Min_cycle;Max_cycle;Signal;HPM_P1;HPM_P2
2021/07/12 04:58:52;;;;;;;;;;;;;;;30.73;48.91;100261.25;1863248;77;20182;-71
2021/07/12 05:01:19;;;;;;;;;;;;;;;30.68;49.03;100261.06;1815532;78;20427;-74
2021/07/12 05:03:46;;;;;;;;;;;;;;;30.67;49.22;100260.23;1829685;78;20867;-69
2021/07/12 05:06:13;;;;;;;;;;;;;;;30.66;48.95;100257.23;1806395;78;20137;-68
2021/07/12 05:08:41;;;;;;;;;;;;;;;30.53;49.41;100262.09;1822087;78;20140;-70
2021/07/12 05:11:08;;;;;;;;;;;;;;;30.53;49.62;100262.09;1813117;78;20180;-68
2021/07/12 05:13:35;;;;;;;;;;;;;;;30.56;49.91;100262.70;1813871;78;20334;-70
2021/07/12 05:16:04;;;;;;;;;;;;;;;30.74;49.33;100260.22;1822421;78;20184;-72
2021/07/12 05:18:36;;;;;;;;;;;;;;;30.81;49.54;100257.78;1802557;78;20113;-68
2021/07/12 05:21:06;;;;;;;;;;;;;;;31.02;49.17;100255.33;1828682;78;20205;-72
2021/07/12 05:23:34;;;;;;;;;;;;;;;31.30;48.92;100254.18;1822395;78;20089;-72
2021/07/12 05:26:00;;;;;;;;;;;;;;;31.65;48.29;100257.27;1827098;78;20090;-75
2021/07/12 05:28:27;;;;;;;;;;;;;;;31.96;47.26;100256.45;1820114;78;21914;-71
2021/07/12 05:30:54;;;;;;;;;;;;;;;32.20;46.64;100258.30;1825231;78;20124;-71
2021/07/12 05:33:20;;;;;;;;;;;;;;;32.34;46.46;100245.55;1816531;78;20491;-71
2021/07/12 05:35:47;;;;;;;;;;;;;;;32.53;46.12;100250.41;1825846;78;20085;-70
2021/07/12 05:38:14;;;;;;;;;;;;;;;32.71;45.36;100254.47;1825920;78;20293;-69
2021/07/12 05:40:41;;;;;;;;;;;;;;;32.77;45.49;100261.70;1826529;78;21129;-68
2021/07/12 05:43:09;;;;;;;;;;;;;;;32.83;45.45;100268.86;1825039;78;20101;-69
2021/07/12 05:45:39;;;;;;;;;;;;;;;32.83;45.36;100256.72;1823716;78;20194;-74
2021/07/12 05:48:08;;;;;;;;;;;;;;;32.72;45.90;100261.52;1826138;78;20089;-73
2021/07/12 05:50:36;;;;;;;;;;;;;;;32.54;45.88;100264.20;1818432;78;20133;-73
2021/07/12 05:53:04;;;;;;;;;;;;;;;32.29;45.31;100266.95;1818296;78;21057;-73
2021/07/12 05:55:33;;;;;;;;;;;;;;;31.96;45.87;100274.78;1816369;78;20088;-75
2021/07/12 05:58:00;;;;;;;;;;;;;;;31.62;46.47;100276.02;1827840;78;20313;-71
2021/07/12 06:00:27;;;;;;;;;;;;;;;31.32;46.87;100274.97;1817301;78;20109;-74
2021/07/12 06:02:54;;;;;;;;;;;;;;;31.07;47.83;100279.73;1813514;78;20162;-72
2021/07/12 06:05:22;;;;;;;;;;;;;;;30.93;48.83;100286.19;1827697;78;21204;-72
2021/07/12 06:07:49;;;;;;;;;;;;;;;30.82;49.30;100281.47;1815243;78;20085;-71
2021/07/12 06:10:20;;;;;;;;;;;;;;;30.75;49.58;100288.23;1816131;78;20398;-74
2021/07/12 06:12:48;;;;;;;;;;;;;;;30.62;49.12;100289.60;1816152;78;20139;-70
2021/07/12 06:15:19;;;;;;;;;;;;;;;30.43;48.97;100292.59;1813535;78;20176;-70
2021/07/12 06:17:46;;;;;;;;;;;;;;;30.25;49.00;100289.73;1820409;78;21131;-75
2021/07/12 06:20:16;;;;;;;;;;;;;;;30.10;49.25;100295.83;1831890;78;20057;-72
2021/07/12 06:22:43;;;;;;;;;;;;;;;29.97;49.35;100295.30;1818713;78;20490;-69
2021/07/12 06:25:14;;;;;;;;;;;;;;;29.91;49.56;100299.31;1820881;78;20213;-70
2021/07/12 06:27:43;;;;;;;;;;;;;;;29.84;49.89;100294.77;1814127;78;20113;-72
2021/07/12 06:30:14;;;;;;;;;;;;;;;29.81;50.40;100296.52;1822564;78;21147;-72
2021/07/12 06:32:41;;;;;;;;;;;;;;;29.78;50.83;100296.09;1790547;78;20094;-72
2021/07/12 06:35:10;;;;;;;;;;;;;;;29.74;51.91;100292.98;1817837;78;20078;-73
2021/07/12 06:37:37;;;;;;;;;;;;;;;29.73;52.42;100291.34;1813838;78;20141;-76
2021/07/12 06:40:05;;;;;;;;;;;;;;;29.76;52.12;100287.42;1825396;78;20361;-75
2021/07/12 06:42:34;;;;;;;;;;;;;;;29.68;51.86;100288.95;1820800;78;20133;-74
2021/07/12 06:45:04;;;;;;;;;;;;;;;29.60;51.48;100295.33;1790852;80;20096;-75
2021/07/12 06:47:50;;;;;;;;;;;;;;;29.50;51.33;100290.38;1813673;78;20084;-71
2021/07/12 06:50:22;;;;;;;;;;;;;;;29.37;51.16;100293.50;1814495;78;20078;-72
2021/07/12 06:52:49;;;;;;;;;;;;;;;29.24;51.60;100296.95;1815220;78;20137;-73
2021/07/12 06:55:16;;;;;;;;;;;;;;;29.10;52.17;100295.27;1823219;78;21144;-73
2021/07/12 06:57:45;;;;;;;;;;;;;;;28.96;53.15;100293.55;1817022;78;20121;-71
2021/07/12 07:00:14;;;;;;;;;;;;;;;28.83;54.09;100290.28;1812141;78;20496;-72
2021/07/12 07:02:57;;;;;;;;;;;;;;;28.73;55.17;100298.67;1812625;78;20110;-78
2021/07/12 07:05:26;;;;;;;;;;;;;;;28.70;55.41;100289.69;1809892;78;20090;-72
2021/07/12 07:07:58;;;;;;;;;;;;;;;28.68;54.60;100300.28;1811824;78;21177;-71
2021/07/12 07:10:28;;;;;;;;;;;;;;;28.63;54.42;100295.52;1800555;78;20402;-70
2021/07/12 07:12:59;;;;;;;;;;;;;;;28.62;54.34;100299.73;1784061;78;20125;-72
2021/07/12 07:15:28;;;;;;;;;;;;;;;28.59;53.73;100296.10;1813327;78;20413;-73
2021/07/12 07:17:55;;;;;;;;;;;;;;;28.55;53.20;100295.66;1802958;78;20157;-68
2021/07/12 07:20:22;;;;;;;;;;;;;;;28.56;53.03;100302.68;1804749;78;21145;-72
2021/07/12 07:22:48;;;;;;;;;;;;;;;28.62;53.05;100297.05;1811234;78;20224;-73
2021/07/12 07:25:17;;;;;;;;;;;;;;;28.75;52.57;100288.59;1820065;78;20194;-71
2021/07/12 07:27:48;;;;;;;;;;;;;;;28.91;52.00;100294.14;1820443;78;20086;-73
2021/07/12 07:30:17;;;;;;;;;;;;;;;29.04;51.95;100294.22;1820317;78;20164;-72
2021/07/12 07:32:43;;;;;;;;;;;;;;;29.21;51.63;100291.48;1812360;78;21263;-73
2021/07/12 07:35:11;;;;;;;;;;;;;;;29.37;51.75;100294.33;1807181;78;20119;-73
2021/07/12 07:37:41;;;;;;;;;;;;;;;29.53;51.67;100291.83;1820727;78;20081;-70
2021/07/12 07:40:09;;;;;;;;;;;;;;;29.66;51.36;100289.66;1817117;78;20113;-73
2021/07/12 07:42:40;;;;;;;;;;;;;;;29.73;51.23;100298.56;1805856;78;21013;-69
2021/07/12 07:45:12;;;;;;;;;;;;;;;29.72;51.53;100293.70;1810364;78;21133;-74
2021/07/12 07:47:39;;;;;;;;;;;;;;;29.72;51.94;100294.22;1815973;78;20404;-72
2021/07/12 07:50:08;;;;;;;;;;;;;;;29.69;52.34;100288.75;1811439;78;20330;-71
2021/07/12 07:52:40;;;;;;;;;;;;;;;29.64;52.43;100285.84;1815009;78;20174;-73
2021/07/12 07:55:09;;;;;;;;;;;;;;;29.61;52.83;100289.45;1812605;78;20125;-75
2021/07/12 07:57:38;;;;;;;;;;;;;;;29.57;52.94;100282.86;1806100;78;21133;-70
2021/07/12 08:00:07;;;;;;;;;;;;;;;29.51;53.54;100285.33;1806477;78;20082;-72
2021/07/12 08:02:35;;;;;;;;;;;;;;;29.49;53.85;100280.67;1813447;78;20082;-77
2021/07/12 08:05:03;;;;;;;;;;;;;;;29.48;54.05;100286.24;1816876;78;20160;-75
2021/07/12 08:07:30;;;;;;;;;;;;;;;29.50;54.19;100291.72;1807017;78;20153;-73
2021/07/12 08:09:57;;;;;;;;;;;;;;;29.62;53.85;100289.24;1776834;78;21022;-73
2021/07/12 08:12:24;;;;;;;;;;;;;;;29.79;52.32;100287.84;1813689;78;20174;-72
2021/07/12 08:14:55;;;;;;;;;;;;;;;29.98;49.92;100287.55;1815485;78;20116;-72
2021/07/12 08:17:21;;;;;;;;;;;;;;;30.09;49.11;100285.60;1808204;78;20160;-70
2021/07/12 08:19:52;;;;;;;;;;;;;;;30.25;49.14;100278.99;1810474;78;20150;-72
2021/07/12 08:22:20;;;;;;;;;;;;;;;30.59;48.01;100285.16;1809556;78;20117;-68
2021/07/12 08:24:47;;;;;;;;;;;;;;;31.08;47.57;100274.66;1808246;78;20428;-68
2021/07/12 08:27:14;;;;;;;;;;;;;;;31.66;46.29;100276.41;1811687;78;20498;-71
2021/07/12 08:29:42;;;;;;;;;;;;;;;32.10;45.48;100274.13;1811320;78;20145;-70
2021/07/12 08:32:09;;;;;;;;;;;;;;;32.45;44.15;100274.44;1812841;78;20180;-71
2021/07/12 08:34:42;;;;;;;;;;;;;;;32.75;43.92;100269.19;1804869;78;22003;-73
2021/07/12 08:37:12;;;;;;;;;;;;;;;33.04;42.62;100264.88;1810125;78;20109;-73
2021/07/12 08:39:44;;;;;;;;;;;;;;;33.19;42.58;100266.63;1807085;78;20145;-73
2021/07/12 08:42:11;;;;;;;;;;;;;;;33.39;42.91;100263.70;1820267;78;20186;-69
2021/07/12 08:44:38;;;;;;;;;;;;;;;33.58;42.45;100263.13;1801508;78;20189;-67
2021/07/12 08:47:06;;;;;;;;;;;;;;;33.67;41.73;100263.89;1815534;78;21125;-69
2021/07/12 08:49:34;;;;;;;10.45;8.65;;;;;;;33.71;41.49;100261.55;1816834;78;20164;-67
2021/07/12 08:52:04;;;;;;;10.43;8.15;;;;;;;33.69;41.65;100255.03;1753847;80;20974;-71
2021/07/12 08:54:33;;;;;;;8.55;7.75;;;;;;;33.58;41.88;100257.72;1806931;78;21435;-71
2021/07/12 08:57:00;;;;;;;8.65;7.80;;;;;;;33.48;42.31;100252.88;1804163;78;21138;-71
2021/07/12 08:59:36;;;;;;;8.08;7.28;;;;;;;33.40;43.36;100255.38;1808721;78;21523;-67
2021/07/12 09:02:08;;;;;;;7.53;6.83;;;;;;;33.36;43.06;100256.06;1804411;79;20954;-70
2021/07/12 09:04:39;;;;;;;10.50;7.72;;;;;;;33.32;43.31;100248.95;1812647;79;20934;-72
2021/07/12 09:07:11;;;;;;;7.97;7.28;;;;;;;33.26;43.54;100245.78;1820497;79;20900;-72
2021/07/12 09:09:39;;;;;;;9.05;7.20;;;;;;;33.26;43.69;100255.75;1809022;79;20882;-73
2021/07/12 09:12:16;;;;;;;;;;;;;;;33.20;43.83;100255.31;1820642;79;21120;-72
2021/07/12 09:15:13;;;;;;;11.75;7.80;;;;;;;33.14;44.03;100252.50;1820539;79;20220;-73
2021/07/12 09:17:46;;;;;;;9.15;6.92;;;;;;;33.24;43.78;100248.41;1817029;79;20868;-72
2021/07/12 09:20:31;;;;;;;8.23;7.50;;;;;;;33.30;43.99;100242.95;1800553;78;20977;-72
2021/07/12 09:22:58;;;;;;;;;;;;;;;33.42;43.95;100248.39;1803130;78;20914;-71
2021/07/12 09:25:34;;;;;;;8.10;7.40;;;;;;;33.59;43.74;100248.02;1815403;79;21015;-73
2021/07/12 09:28:01;;;;;;;9.43;7.25;;;;;;;33.65;43.12;100251.14;1757088;80;21502;-70
2021/07/12 09:30:32;;;;;;;9.25;7.60;;;;;;;33.58;42.74;100255.84;1752508;79;20969;-71
2021/07/12 09:33:00;;;;;;;7.92;7.30;;;;;;;33.45;43.08;100256.86;1819555;79;20929;-68
2021/07/12 09:35:27;;;;;;;9.60;7.50;;;;;;;33.34;43.45;100254.12;1816958;79;21492;-70
2021/07/12 09:37:58;;;;;;;;;;;;;;;33.26;44.07;100253.05;1808326;79;20966;-71
2021/07/12 09:40:27;;;;;;;8.43;7.50;;;;;;;33.17;44.17;100247.17;1818977;79;20879;-72
2021/07/12 09:42:54;;;;;;;9.60;7.60;;;;;;;33.20;44.56;100248.04;1779384;78;21004;-71
2021/07/12 09:45:22;;;;;;;;;;;;;;;33.20;44.82;100249.39;1807339;78;21453;-71
2021/07/12 09:47:49;;;;;;;9.10;6.30;;;;;;;33.18;43.73;100248.00;1813004;78;20126;-73
2021/07/12 09:50:25;;;;;;;7.33;6.65;;;;;;;33.18;43.63;100242.08;1804129;78;21267;-68
2021/07/12 09:53:01;;;;;;;6.83;6.22;;;;;;;33.26;43.42;100246.30;1804639;78;21001;-72
2021/07/12 09:55:30;;;;;;;;;;;;;;;33.25;41.47;100240.61;1814904;78;20947;-74
2021/07/12 09:58:20;;;;;;;;;;;;;;;33.15;42.03;100234.44;1796430;78;21194;-72
2021/07/12 10:00:52;;;;;;;;;;;;;;;33.04;43.06;100228.45;1809627;78;20118;-73
2021/07/12 10:03:20;;;;;;;;;;;;;;;32.87;43.25;100232.30;1818143;78;21084;-71
2021/07/12 10:05:51;;;;;;;;;;;;;;;32.71;43.68;100229.67;1818963;78;20187;-69
2021/07/12 10:08:19;;;;;;;;;;;;;;;32.58;44.06;100227.13;1816448;78;20090;-66
2021/07/12 10:10:47;;;;;;;;;;;;;;;32.49;44.42;100231.99;1822993;78;20081;-67
2021/07/12 10:13:14;;;;;;;;;;;;;;;32.43;45.20;100227.49;1822967;78;20381;-68
2021/07/12 10:15:41;;;;;;;;;;;;;;;32.23;44.79;100221.50;1822883;78;21134;-67
2021/07/12 10:18:08;;;;;;;;;;;;;;;32.09;45.54;100228.02;1821896;78;20082;-66
2021/07/12 10:20:37;;;;;;;;;;;;;;;31.94;46.30;100223.00;1808145;78;20172;-68
2021/07/12 10:23:05;;;;;;;;;;;;;;;31.85;46.86;100227.02;1801064;78;20114;-66
2021/07/12 10:25:33;;;;;;;;;;;;;;;31.81;47.01;100221.23;1822334;78;20188;-70
2021/07/12 10:28:05;;;;;;;;;;;;;;;31.77;46.74;100218.68;1822925;78;21101;-69
2021/07/12 10:30:45;;;;;;;;;;;;;;;31.75;46.65;100222.63;1792298;78;20116;-68
2021/07/12 10:33:13;;;;;;;;;;;;;;;31.76;46.08;100219.72;1788360;78;20195;-68
2021/07/12 10:35:52;;;;;;;;;;;;;;;31.75;45.98;100210.00;1813123;78;20407;-72
2021/07/12 10:38:38;;;;;;;;;;;;;;;31.79;45.73;100209.03;1811804;78;20118;-68
2021/07/12 10:41:19;;;;;;;;;;;;;;;31.88;45.40;100209.06;1805242;78;21694;-71
2021/07/12 10:44:00;;;;;;;;;;;;;;;32.00;44.51;100201.89;1813456;78;20097;-68
2021/07/12 10:46:31;;;;;;;;;;;;;;;32.07;44.90;100204.00;1810716;78;20450;-68
2021/07/12 10:49:03;;;;;;;;;;;;;;;32.14;44.05;100210.67;1821464;78;20109;-69
2021/07/12 10:51:37;;;;;;;;;;;;;;;32.21;43.76;100208.74;1800759;78;20164;-68
2021/07/12 10:54:12;;;;;;;;;;;;;;;32.32;44.36;100212.09;1812436;78;21109;-70
2021/07/12 10:56:57;;;;;;;;;;;;;;;32.47;41.61;100197.69;1810701;78;20171;-74
2021/07/12 10:59:32;;;;;;;;;;;;;;;32.61;41.25;100202.94;1812510;78;20172;-69
2021/07/12 11:02:01;;;;;;;;;;;;;;;32.74;41.80;100202.78;1818585;78;20163;-72
2021/07/12 11:04:39;;;;;;;;;;;;;;;32.79;40.28;100209.15;1820974;78;20082;-69
2021/07/12 11:07:08;;;;;;;;;;;;;;;32.80;40.47;100209.45;1816264;78;21534;-73
2021/07/12 11:10:00;;;;;;;;;;;;;;;32.90;40.21;100205.39;1820082;78;20163;-67
2021/07/12 11:12:43;;;;;;;;;;;;;;;32.98;40.22;100198.34;1814215;78;20190;-70
2021/07/12 11:15:19;;;;;;;;;;;;;;;33.07;40.11;100202.38;1796793;78;20079;-70
2021/07/12 11:17:55;;;;;;;;;;;;;;;33.16;40.30;100213.14;1819535;78;20160;-71
2021/07/12 11:20:43;;;;;;;;;;;;;;;33.19;40.10;100225.36;1816574;78;21922;-72
2021/07/12 11:23:48;;;;;;;;;;;;;;;33.09;39.54;100230.77;1817631;78;20412;-72
2021/07/12 11:26:30;;;;;;;;;;;;;;;32.87;40.30;100238.22;1822356;78;20109;-74
2021/07/12 11:29:03;;;;;;;;;;;;;;;32.58;40.02;100244.66;1814139;78;20113;-72
2021/07/12 11:31:54;;;;;;;;;;;;;;;32.28;40.77;100236.48;1815717;78;20166;-70
2021/07/12 11:34:24;;;;;;;;;;;;;;;32.08;41.60;100234.45;1814232;78;21043;-74
2021/07/12 11:37:07;;;;;;;;;;;;;;;31.87;42.58;100229.48;1814776;78;20078;-73
2021/07/12 11:39:45;;;;;;;;;;;;;;;31.66;43.31;100234.16;1823553;78;20126;-74
2021/07/12 11:42:21;;;;;;;;;;;;;;;31.46;43.97;100228.11;1814897;78;20172;-73
2021/07/12 11:44:57;;;;;;;;;;;;;;;31.29;44.57;100222.93;1820718;78;20125;-76
2021/07/12 11:47:29;;;;;;;;;;;;;;;31.15;47.40;100220.86;1805439;78;21094;-72
2021/07/12 11:49:58;;;;;;;;;;;;;;;30.98;48.07;100213.77;1807820;78;20066;-74
2021/07/12 11:52:25;;;;;;;;;;;;;;;30.82;49.75;100210.21;1824257;78;20113;-73
2021/07/12 11:54:57;;;;;;;;;;;;;;;30.67;51.40;100205.12;1823282;78;20388;-74
2021/07/12 11:57:24;;;;;;;;;;;;;;;30.57;51.30;100210.12;1811450;78;20062;-72
2021/07/12 11:59:53;;;;;;;;;;;;;;;30.49;50.60;100208.97;1820087;78;21865;-72
2021/07/12 12:02:20;;;;;;;;;;;;;;;30.39;48.93;100216.12;1821984;78;20144;-72
2021/07/12 12:04:58;;;;;;;;;;;;;;;30.28;48.16;100215.96;1800298;78;20451;-74
2021/07/12 12:07:41;;;;;;;;;;;;;;;30.18;48.00;100210.50;1826960;78;20077;-71
2021/07/12 12:10:11;;;;;;;;;;;;;;;30.11;46.84;100217.73;1825901;78;20488;-76
2021/07/12 12:12:43;;;;;;;;;;;;;;;30.08;48.05;100224.03;1826899;78;20391;-75
2021/07/12 12:15:13;;;;;;;;;;;;;;;30.06;48.53;100220.73;1821960;78;20082;-68
2021/07/12 12:17:52;;;;;;;;;;;;;;;30.02;49.13;100212.78;1828018;78;20075;-72
2021/07/12 12:20:33;;;;;;;;;;;;;;;29.97;50.27;100230.03;1828101;78;20384;-70
2021/07/12 12:23:09;;;;;;;;;;;;;;;29.86;50.02;100248.41;1812622;78;20120;-71
2021/07/12 12:25:41;;;;;;;;;;;;;;;29.62;49.82;100250.84;1823405;78;21089;-72
2021/07/12 12:28:28;;;;;;;;;;;;;;;29.27;49.73;100245.59;1813674;78;20185;-72
2021/07/12 12:30:55;;;;;;;;;;;;;;;28.90;50.37;100239.38;1818163;78;20122;-73
2021/07/12 12:33:33;;;;;;;;;;;;;;;28.54;51.09;100239.91;1810453;78;20428;-72
2021/07/12 12:36:09;;;;;;;;;;;;;;;28.30;51.79;100239.56;1823391;78;20152;-72
2021/07/12 12:38:36;;;;;;;;;;;;;;;28.04;52.47;100240.98;1826171;78;21044;-70
2021/07/12 12:41:05;;;;;;;;;;;;;;;27.84;53.05;100248.04;1821442;78;20140;-70
2021/07/12 12:43:34;;;;;;;;;;;;;;;27.72;53.49;100250.91;1807119;77;20157;-72
2021/07/12 12:46:04;;;;;;;;;;;;;;;27.62;53.87;100245.05;1818275;78;20169;-72
2021/07/12 12:48:36;;;;;;;;;;;;;;;27.50;54.32;100235.35;1799156;78;20259;-73
2021/07/12 12:51:27;;;;;;;;;;;;;;;27.41;54.70;100224.45;1807380;78;20749;-73
2021/07/12 12:54:03;;;;;;;;;;;;;;;27.34;55.27;100223.05;1823051;78;20112;-71
2021/07/12 12:56:30;;;;;;;;;;;;;;;27.24;55.59;100233.22;1827272;78;20090;-73
2021/07/12 12:59:04;;;;;;;;;;;;;;;27.16;55.58;100236.86;1819752;78;20089;-73
2021/07/12 13:01:36;;;;;;;;;;;;;;;27.09;55.81;100241.30;1809628;78;20412;-70
2021/07/12 13:04:10;;;;;;;;;;;;;;;27.03;55.96;100271.44;1826087;78;22040;-73
2021/07/12 13:06:41;;;;;;;;;;;;;;;26.93;56.63;100312.29;1811690;78;20078;-77
2021/07/12 13:09:09;;;;;;;;;;;;;;;26.75;54.25;100281.13;1821376;78;20172;-73
2021/07/12 13:11:36;;;;;;;;;;;;;;;26.47;54.37;100280.91;1827680;78;20090;-72
2021/07/12 13:14:05;;;;;;;;;;;;;;;26.22;54.85;100290.98;1819359;78;20141;-72
2021/07/12 13:16:33;;;;;;;;;;;;;;;26.03;55.35;100263.45;1816357;78;21094;-74
2021/07/12 13:19:05;;;;;;;;;;;;;;;25.94;55.57;100282.73;1809389;78;20143;-77
2021/07/12 13:21:48;;;;;;;;;;;;;;;25.90;55.66;100282.77;1802094;78;20138;-73
2021/07/12 13:24:17;;;;;;;;;;;;;;;25.82;55.43;100287.66;1807590;78;20166;-74
2021/07/12 13:26:44;;;;;;;;;;;;;;;25.76;55.49;100292.87;1821388;78;20195;-77
2021/07/12 13:29:13;;;;;;;;;;;;;;;25.65;54.70;100274.60;1813280;78;21130;-74
2021/07/12 13:31:40;;;;;;;;;;;;;;;25.60;54.65;100277.77;1812194;78;20090;-71
2021/07/12 13:34:07;;;;;;;;;;;;;;;25.58;54.38;100273.14;1791751;78;20117;-73
2021/07/12 13:36:34;;;;;;;;;;;;;;;25.56;54.27;100269.31;1817653;78;20179;-75
2021/07/12 13:39:05;;;;;;;;;;;;;;;25.57;54.20;100262.15;1820362;78;20065;-71
2021/07/12 13:41:32;;;;;;;;;;;;;;;25.60;54.14;100267.09;1813305;78;21142;-72
2021/07/12 13:43:59;;;;;;;;;;;;;;;25.65;53.80;100274.09;1799687;78;20113;-72
2021/07/12 13:46:27;;;;;;;;;;;;;;;25.69;53.35;100272.73;1825127;78;20183;-71
2021/07/12 13:48:54;;;;;;;;;;;;;;;25.74;53.40;100274.87;1808732;78;20093;-71
2021/07/12 13:51:23;;;;;;;;;;;;;;;25.81;53.01;100284.66;1820275;78;20440;-72
2021/07/12 13:53:51;;;;;;;;;;;;;;;25.88;52.96;100283.45;1826107;78;21164;-73
2021/07/12 13:56:18;;;;;;;;;;;;;;;25.95;52.70;100277.72;1828179;78;20198;-71
2021/07/12 13:58:48;;;;;;;;;;;;;;;26.04;52.65;100282.46;1800479;78;20177;-74
